Terminal Aerodrome Forecast
Issued by NWS Indianapolis, IN

Home | Current Version | Previous Version | Text Only | Print | Product List | Glossary On
Versions: 1 2 3 4 5 6 7 8 9 10 11 12 13 14 15 16 17 18 19 20 21 22 23 24 25 26 27
550
FTUS43 KIND 091359 AAA
TAFIND
TAF AMD
KIND 091359Z 0914/1018 29014G20KT 6SM BR VCSH OVC015
      TEMPO 0918/0922 2SM -SHSN OVC012
     FM100000 29012G20KT P6SM VCSH SCT012 OVC020
     FM101200 29012G20KT P6SM OVC025=

USA.gov is the U.S. government's official web portal to all federal, state and local government web resources and services.